createdAt,value
2023-04-16T00:03:09.992Z,101313.69
2023-04-16T00:06:32.162Z,101312.72
2023-04-16T00:09:53.448Z,101316.25
2023-04-16T00:13:15.510Z,101318.06
2023-04-16T00:16:39.853Z,101318.78
2023-04-16T00:20:01.327Z,101326.78
2023-04-16T00:23:25.301Z,101322.41
2023-04-16T00:26:47.587Z,101320.00
2023-04-16T00:30:10.815Z,101315.63
2023-04-16T00:33:34.348Z,101322.78
2023-04-16T00:36:56.674Z,101322.03
2023-04-16T00:40:18.158Z,101316.09
2023-04-16T00:43:39.768Z,101321.19
2023-04-16T00:47:01.425Z,101326.78
2023-04-16T00:50:24.979Z,101321.44
2023-04-16T00:53:47.465Z,101323.97
2023-04-16T00:57:09.318Z,101326.41
2023-04-16T01:00:31.178Z,101321.19
2023-04-16T01:03:53.191Z,101321.53
2023-04-16T01:07:16.699Z,101330.41
2023-04-16T01:10:38.889Z,101329.53
2023-04-16T01:14:00.595Z,101328.69
2023-04-16T01:17:22.609Z,101330.41
2023-04-16T01:20:46.766Z,101339.00
2023-04-16T01:24:08.997Z,101337.19
2023-04-16T01:27:31.209Z,101339.13
2023-04-16T01:30:52.608Z,101341.06
2023-04-16T01:34:23.589Z,101336.56
2023-04-16T01:37:47.379Z,101346.38
2023-04-16T01:41:09.353Z,101343.22
2023-04-16T01:44:31.390Z,101349.03
2023-04-16T01:47:54.026Z,101344.88
2023-04-16T01:51:15.543Z,101341.94
2023-04-16T01:54:38.740Z,101348.81
2023-04-16T01:58:00.288Z,101351.78
2023-04-16T02:01:25.880Z,101354.78
2023-04-16T02:04:47.673Z,101355.03
2023-04-16T02:08:09.974Z,101351.53
2023-04-16T02:11:33.038Z,101357.69
2023-04-16T02:14:55.542Z,101361.53
2023-04-16T02:18:20.168Z,101366.22
2023-04-16T02:21:42.262Z,101357.00
2023-04-16T02:25:04.544Z,101362.56
2023-04-16T02:28:27.472Z,101363.97
2023-04-16T02:31:50.151Z,101360.44
2023-04-16T02:35:12.754Z,101373.97
2023-04-16T02:38:34.569Z,101381.34
2023-04-16T02:41:56.165Z,101381.44
2023-04-16T02:45:19.658Z,101384.34
2023-04-16T02:48:41.430Z,101387.22
2023-04-16T02:52:03.131Z,101383.81
2023-04-16T02:55:25.144Z,101383.91
2023-04-16T02:58:46.669Z,101390.41
2023-04-16T03:02:09.812Z,101384.13
2023-04-16T03:05:32.101Z,101384.13
2023-04-16T03:08:54.063Z,101383.19
2023-04-16T03:12:16.103Z,101392.34
2023-04-16T03:15:37.914Z,101390.47
2023-04-16T03:19:01.356Z,101394.94
2023-04-16T03:22:23.273Z,101407.47
2023-04-16T03:25:47.010Z,101399.72
2023-04-16T03:29:12.206Z,101405.03
2023-04-16T03:32:33.986Z,101405.03
2023-04-16T03:35:59.074Z,101400.78
2023-04-16T03:39:24.000Z,101403.56
2023-04-16T03:42:46.204Z,101401.75
2023-04-16T03:46:08.224Z,101405.13
2023-04-16T03:49:30.654Z,101407.91
2023-04-16T03:52:55.407Z,101407.06
2023-04-16T03:56:17.563Z,101413.13
2023-04-16T03:59:39.586Z,101417.47
2023-04-16T04:03:01.913Z,101428.13
2023-04-16T04:06:23.967Z,101432.38
2023-04-16T04:09:47.546Z,101430.47
2023-04-16T04:13:10.993Z,101428.53
2023-04-16T04:16:33.279Z,101439.19
2023-04-16T04:23:22.025Z,101430.47
2023-04-16T04:26:46.227Z,101443.66
2023-04-16T04:30:10.078Z,101442.59
2023-04-16T04:33:33.162Z,101450.34
2023-04-16T04:36:54.852Z,101449.38
2023-04-16T04:40:16.942Z,101450.13
2023-04-16T04:43:41.530Z,101450.88
2023-04-16T04:47:03.274Z,101450.78
2023-04-16T04:50:25.504Z,101458.63
2023-04-16T04:53:47.393Z,101463.13
2023-04-16T04:57:10.033Z,101458.53
2023-04-16T05:00:33.846Z,101467.25
2023-04-16T05:03:56.054Z,101468.31
2023-04-16T05:07:18.000Z,101469.63
2023-04-16T05:10:39.370Z,101477.69
2023-04-16T05:14:01.053Z,101482.38
2023-04-16T05:17:24.045Z,101478.84
2023-04-16T05:20:45.635Z,101481.94
2023-04-16T05:24:08.532Z,101486.63
2023-04-16T05:27:30.159Z,101486.53
2023-04-16T05:30:52.137Z,101486.75
2023-04-16T05:34:15.482Z,101493.84
2023-04-16T05:37:37.007Z,101495.91
2023-04-16T05:40:59.742Z,101504.84
2023-04-16T05:44:21.416Z,101509.19
2023-04-16T05:47:43.450Z,101505.56
2023-04-16T05:51:07.219Z,101509.19
2023-04-16T05:54:29.114Z,101509.81
2023-04-16T05:57:50.532Z,101516.75
2023-04-16T06:01:12.667Z,101518.53
2023-04-16T06:04:35.789Z,101516.00
2023-04-16T06:07:59.390Z,101513.34
2023-04-16T06:11:21.263Z,101517.69
2023-04-16T06:14:43.484Z,101519.19
2023-04-16T06:18:04.949Z,101518.97
2023-04-16T06:21:27.741Z,101523.13
2023-04-16T06:24:50.995Z,101527.59
2023-04-16T06:28:12.696Z,101534.63
2023-04-16T06:31:34.484Z,101535.59
2023-04-16T06:34:56.502Z,101537.28
2023-04-16T06:38:18.234Z,101543.22
2023-04-16T06:41:41.961Z,101545.78
2023-04-16T06:45:03.791Z,101547.38
2023-04-16T06:48:25.348Z,101548.13
2023-04-16T06:51:47.448Z,101549.72
2023-04-16T06:55:10.165Z,101549.06
2023-04-16T06:58:34.011Z,101554.31
2023-04-16T07:01:55.775Z,101558.59
2023-04-16T07:05:17.865Z,101559.50
2023-04-16T07:08:39.608Z,101555.91
2023-04-16T07:12:02.168Z,101561.97
2023-04-16T07:15:26.079Z,101558.47
2023-04-16T07:18:47.910Z,101567.09
2023-04-16T07:22:09.485Z,101568.88
2023-04-16T07:25:30.848Z,101571.53
2023-04-16T07:28:52.726Z,101570.72
2023-04-16T07:32:16.076Z,101578.47
2023-04-16T07:35:37.746Z,101578.47
2023-04-16T07:38:59.905Z,101578.56
2023-04-16T07:42:21.712Z,101576.03
2023-04-16T07:45:44.180Z,101594.53
2023-04-16T07:49:07.658Z,101592.75
2023-04-16T07:52:29.498Z,101594.44
2023-04-16T07:55:50.965Z,101598.59
2023-04-16T07:59:21.863Z,101598.25
2023-04-16T08:02:45.659Z,101599.66
2023-04-16T08:06:08.996Z,101604.88
2023-04-16T08:09:31.786Z,101607.84
2023-04-16T08:12:53.504Z,101605.41
2023-04-16T08:16:14.990Z,101606.25
2023-04-16T08:19:37.013Z,101613.38
2023-04-16T08:23:00.394Z,101615.63
2023-04-16T08:26:21.779Z,101617.97
2023-04-16T08:29:43.442Z,101618.59
2023-04-16T08:33:05.035Z,101623.38
2023-04-16T08:36:28.095Z,101630.09
2023-04-16T08:39:50.996Z,101633.28
2023-04-16T08:43:14.440Z,101633.28
2023-04-16T08:46:38.481Z,101635.84
2023-04-16T08:50:00.726Z,101641.06
2023-04-16T08:53:29.552Z,101643.81
2023-04-16T08:56:53.269Z,101642.03
2023-04-16T09:00:16.753Z,101646.22
2023-04-16T09:03:38.338Z,101646.09
2023-04-16T09:07:01.219Z,101649.19
2023-04-16T09:10:23.552Z,101656.72
2023-04-16T09:13:47.961Z,101655.03
2023-04-16T09:17:10.939Z,101657.16
2023-04-16T09:20:32.285Z,101662.69
2023-04-16T09:23:54.412Z,101667.91
2023-04-16T09:27:16.657Z,101670.97
2023-04-16T09:30:39.873Z,101678.66
2023-04-16T09:34:03.922Z,101677.56
2023-04-16T09:37:26.651Z,101678.94
2023-04-16T09:40:48.593Z,101678.59
2023-04-16T09:44:10.514Z,101680.13
2023-04-16T09:47:42.314Z,101677.09
2023-04-16T09:51:06.821Z,101677.97
2023-04-16T09:54:28.253Z,101679.66
2023-04-16T09:57:50.111Z,101683.91
2023-04-16T10:01:13.377Z,101684.53
2023-04-16T10:04:46.981Z,101682.63
2023-04-16T10:08:15.564Z,101683.13
2023-04-16T10:11:37.856Z,101683.88
2023-04-16T10:14:59.536Z,101685.34
2023-04-16T10:18:22.191Z,101696.75
2023-04-16T10:21:46.430Z,101697.25
2023-04-16T10:25:09.450Z,101699.59
2023-04-16T10:28:31.846Z,101698.31
2023-04-16T10:31:55.289Z,101700.75
2023-04-16T10:35:20.268Z,101699.78
2023-04-16T10:38:49.257Z,101704.94
2023-04-16T10:42:12.355Z,101705.38
2023-04-16T10:45:38.926Z,101703.56
2023-04-16T10:49:03.049Z,101711.47
2023-04-16T10:52:25.536Z,101706.44
2023-04-16T10:56:15.945Z,101709.97
2023-04-16T10:59:39.750Z,101712.97
2023-04-16T11:03:02.221Z,101716.31
2023-04-16T11:06:26.643Z,101715.66
2023-04-16T11:09:54.305Z,101719.44
2023-04-16T11:13:18.081Z,101728.63
2023-04-16T11:16:42.357Z,101734.47
2023-04-16T11:20:05.164Z,101732.34
2023-04-16T11:23:50.300Z,101730.78
2023-04-16T11:27:13.930Z,101738.13
2023-04-16T11:30:38.603Z,101740.25
2023-04-16T11:34:00.981Z,101744.84
2023-04-16T11:37:33.059Z,101759.03
2023-04-16T11:40:55.164Z,101751.78
2023-04-16T11:44:21.565Z,101752.84
2023-04-16T11:47:51.883Z,101756.16
2023-04-16T11:51:13.796Z,101758.16
2023-04-16T11:54:36.958Z,101754.53
2023-04-16T11:57:58.637Z,101762.09
2023-04-16T12:01:22.052Z,101761.06
2023-04-16T12:04:45.017Z,101764.56
2023-04-16T12:08:08.626Z,101761.88
2023-04-16T12:11:41.269Z,101767.22
2023-04-16T12:15:04.597Z,101770.44
2023-04-16T12:19:16.420Z,101765.50
2023-04-16T12:22:41.504Z,101772.25
2023-04-16T12:26:10.572Z,101770.09
2023-04-16T12:29:32.664Z,101769.78
2023-04-16T12:33:14.355Z,101769.44
2023-04-16T12:36:36.190Z,101777.00
2023-04-16T12:39:58.921Z,101772.63
2023-04-16T12:43:22.085Z,101770.09
2023-04-16T12:46:44.552Z,101776.91
2023-04-16T12:50:07.249Z,101774.97
2023-04-16T12:53:28.978Z,101769.41
2023-04-16T12:56:52.029Z,101776.22
2023-04-16T13:00:15.189Z,101777.94
2023-04-16T13:03:37.333Z,101780.28
2023-04-16T13:06:59.420Z,101780.28
2023-04-16T13:10:23.464Z,101783.78
2023-04-16T13:13:46.618Z,101783.03
2023-04-16T13:17:08.233Z,101784.75
2023-04-16T13:20:30.271Z,101790.72
2023-04-16T13:23:54.060Z,101797.03
2023-04-16T13:27:16.928Z,101789.13
2023-04-16T13:30:41.069Z,101788.16
2023-04-16T13:34:03.498Z,101793.72
2023-04-16T13:37:25.325Z,101798.09
2023-04-16T13:40:46.900Z,101795.41
2023-04-16T13:44:08.806Z,101795.53
2023-04-16T13:47:31.944Z,101797.47
2023-04-16T13:50:53.619Z,101799.03
2023-04-16T13:54:15.501Z,101801.50
2023-04-16T13:57:37.847Z,101796.91
2023-04-16T14:00:59.564Z,101798.00
2023-04-16T14:04:22.674Z,101799.03
2023-04-16T14:07:44.362Z,101802.59
2023-04-16T14:11:06.602Z,101806.31
2023-04-16T14:14:28.499Z,101795.63
2023-04-16T14:17:49.965Z,101807.28
2023-04-16T14:21:14.496Z,101802.59
2023-04-16T14:24:36.207Z,101802.44
2023-04-16T14:27:57.667Z,101806.94
2023-04-16T14:31:20.930Z,101806.94
2023-04-16T14:34:42.843Z,101809.72
2023-04-16T14:38:05.965Z,101806.22
2023-04-16T14:41:27.638Z,101817.84
2023-04-16T14:44:49.664Z,101814.22
2023-04-16T14:48:11.212Z,101813.56
2023-04-16T14:51:33.990Z,101812.94
2023-04-16T14:54:57.221Z,101824.66
2023-04-16T14:58:19.295Z,101826.81
2023-04-16T15:01:41.500Z,101829.69
2023-04-16T15:05:03.349Z,101828.94
2023-04-16T15:08:25.719Z,101831.84
2023-04-16T15:11:48.861Z,101836.63
2023-04-16T15:15:11.805Z,101839.69
2023-04-16T15:18:34.362Z,101832.78
2023-04-16T15:21:56.338Z,101840.03
2023-04-16T15:25:17.913Z,101839.72
2023-04-16T15:28:40.790Z,101850.91
2023-04-16T15:32:02.683Z,101847.69
2023-04-16T15:35:24.360Z,101848.75
2023-04-16T15:38:46.007Z,101860.06
2023-04-16T15:42:08.469Z,101860.06
2023-04-16T15:45:31.939Z,101856.75
2023-04-16T15:48:53.360Z,101864.28
2023-04-16T15:52:15.528Z,101872.28
2023-04-16T15:55:37.262Z,101864.28
2023-04-16T15:58:58.804Z,101867.81
2023-04-16T16:02:22.067Z,101875.91
2023-04-16T16:05:43.567Z,101882.19
2023-04-16T16:09:05.284Z,101880.47
2023-04-16T16:12:27.328Z,101884.31
2023-04-16T16:15:48.770Z,101878.13
2023-04-16T16:19:12.510Z,101882.38
2023-04-16T16:22:34.259Z,101887.72
2023-04-16T16:25:56.059Z,101888.59
2023-04-16T16:29:17.967Z,101896.78
2023-04-16T16:32:40.918Z,101897.63
2023-04-16T16:36:06.102Z,101897.75
2023-04-16T16:39:27.858Z,101902.59
2023-04-16T16:42:49.503Z,101900.97
2023-04-16T16:46:11.519Z,101903.00
2023-04-16T16:49:32.964Z,101899.78
2023-04-16T16:52:56.017Z,101907.84
2023-04-16T16:56:18.394Z,101901.69
2023-04-16T16:59:39.998Z,101905.84
2023-04-16T17:03:02.011Z,101908.31
2023-04-16T17:06:27.171Z,101915.56
2023-04-16T17:09:50.557Z,101917.47
2023-04-16T17:13:13.643Z,101916.78
2023-04-16T17:16:35.247Z,101928.53
2023-04-16T17:19:57.120Z,101923.19
2023-04-16T17:23:19.139Z,101930.22
2023-04-16T17:26:42.134Z,101931.25
2023-04-16T17:30:05.764Z,101932.13
2023-04-16T17:33:27.593Z,101932.13
2023-04-16T17:36:50.525Z,101938.31
2023-04-16T17:40:14.480Z,101936.38
2023-04-16T17:43:37.158Z,101943.53
2023-04-16T17:46:58.898Z,101947.91
2023-04-16T17:50:20.747Z,101953.59
2023-04-16T17:53:43.554Z,101959.88
2023-04-16T17:57:05.325Z,101953.81
2023-04-16T18:00:28.609Z,101959.31
2023-04-16T18:03:50.895Z,101962.09
2023-04-16T18:07:13.297Z,101971.88
2023-04-16T18:10:34.864Z,101976.38
2023-04-16T18:13:56.334Z,101978.34
2023-04-16T18:17:21.919Z,101980.38
2023-04-16T18:20:44.047Z,101988.72
2023-04-16T18:24:06.774Z,101982.00
2023-04-16T18:27:28.806Z,101983.91
2023-04-16T18:30:50.865Z,101990.06
2023-04-16T18:34:13.596Z,101992.66
2023-04-16T18:37:35.504Z,102005.19
2023-04-16T18:40:57.135Z,102006.16
2023-04-16T18:44:19.795Z,102009.66
2023-04-16T18:47:41.656Z,102017.53
2023-04-16T18:51:05.172Z,102018.31
2023-04-16T18:54:27.609Z,102015.66
2023-04-16T18:57:49.329Z,102027.25
2023-04-16T19:01:13.652Z,102023.81
2023-04-16T19:04:35.437Z,102031.03
2023-04-16T19:07:58.231Z,102028.72
2023-04-16T19:11:20.377Z,102025.31
2023-04-16T19:14:42.164Z,102038.81
2023-04-16T19:18:04.047Z,102039.00
2023-04-16T19:21:25.893Z,102040.13
2023-04-16T19:24:48.709Z,102039.31
2023-04-16T19:28:10.604Z,102040.06
2023-04-16T19:31:32.567Z,102037.47
2023-04-16T19:34:54.200Z,102048.13
2023-04-16T19:38:15.761Z,102043.75
2023-04-16T19:41:39.159Z,102049.94
2023-04-16T19:45:00.894Z,102047.53
2023-04-16T19:48:23.103Z,102053.25
2023-04-16T19:51:46.139Z,102057.03
2023-04-16T19:55:08.819Z,102062.53
2023-04-16T19:58:31.943Z,102058.50
2023-04-16T20:01:54.085Z,102056.97
2023-04-16T20:05:16.247Z,102055.47
2023-04-16T20:08:38.614Z,102056.59
2023-04-16T20:12:00.921Z,102058.47
2023-04-16T20:15:24.197Z,102063.03
2023-04-16T20:18:46.489Z,102060.38
2023-04-16T20:22:08.004Z,102063.97
2023-04-16T20:25:30.407Z,102058.47
2023-04-16T20:28:51.901Z,102053.94
2023-04-16T20:32:15.402Z,102054.03
2023-04-16T20:35:37.111Z,102064.66
2023-04-16T20:38:59.493Z,102065.69
2023-04-16T20:42:22.529Z,102077.19
2023-04-16T20:45:46.114Z,102067.59
2023-04-16T20:49:09.171Z,102067.78
2023-04-16T20:52:30.996Z,102070.59
2023-04-16T20:55:52.335Z,102075.06
2023-04-16T20:59:14.329Z,102082.19
2023-04-16T21:02:36.193Z,102081.25
2023-04-16T21:05:59.454Z,102078.59
2023-04-16T21:09:21.583Z,102085.69
2023-04-16T21:12:43.370Z,102081.31
2023-04-16T21:16:06.199Z,102077.81
2023-04-16T21:19:27.852Z,102087.75
2023-04-16T21:22:55.126Z,102085.22
2023-04-16T21:26:17.094Z,102084.69
2023-04-16T21:29:39.042Z,102086.47
2023-04-16T21:33:00.883Z,102091.03
2023-04-16T21:36:22.394Z,102090.19
2023-04-16T21:39:45.940Z,102085.72
2023-04-16T21:43:07.943Z,102085.72
2023-04-16T21:46:29.814Z,102088.47
2023-04-16T21:49:51.662Z,102087.41
2023-04-16T21:53:13.902Z,102090.84
2023-04-16T21:56:36.915Z,102088.03
2023-04-16T21:59:58.432Z,102095.06
2023-04-16T22:03:26.221Z,102088.03
2023-04-16T22:06:48.509Z,102100.38
2023-04-16T22:10:11.806Z,102090.59
2023-04-16T22:13:38.199Z,102096.25
2023-04-16T22:16:59.906Z,102095.56
2023-04-16T22:20:22.349Z,102094.91
2023-04-16T22:23:46.705Z,102099.44
2023-04-16T22:27:08.525Z,102095.25
2023-04-16T22:30:31.239Z,102089.06
2023-04-16T22:33:53.127Z,102093.56
2023-04-16T22:37:15.668Z,102098.59
2023-04-16T22:40:37.481Z,102094.31
2023-04-16T22:43:59.462Z,102095.34
2023-04-16T22:47:22.690Z,102101.53
2023-04-16T22:50:48.720Z,102101.59
2023-04-16T22:54:13.649Z,102100.81
2023-04-16T22:57:35.632Z,102101.00
2023-04-16T23:00:59.596Z,102101.00
2023-04-16T23:04:22.940Z,102104.50
2023-04-16T23:07:44.340Z,102101.00
2023-04-16T23:11:06.428Z,102109.97
2023-04-16T23:14:28.013Z,102102.88
2023-04-16T23:17:50.172Z,102109.91
2023-04-16T23:21:13.363Z,102112.56
2023-04-16T23:24:34.734Z,102109.97
2023-04-16T23:27:56.665Z,102107.44
2023-04-16T23:31:18.531Z,102117.28
2023-04-16T23:34:41.748Z,102112.91
2023-04-16T23:38:05.138Z,102115.75
2023-04-16T23:41:26.484Z,102114.88
2023-04-16T23:44:48.482Z,102112.38
2023-04-16T23:48:10.231Z,102107.91
2023-04-16T23:51:32.024Z,102111.69
2023-04-16T23:54:55.059Z,102118.72
2023-04-16T23:58:16.483Z,102112.47
